createdAt,value
2023-04-05T00:02:21.274Z,7.84
2023-04-05T00:04:52.363Z,7.65
2023-04-05T00:07:21.684Z,7.67
2023-04-05T00:09:49.636Z,7.94
2023-04-05T00:12:16.333Z,7.34
2023-04-05T00:14:43.064Z,7.64
2023-04-05T00:17:11.191Z,7.77
2023-04-05T00:19:39.518Z,7.76
2023-04-05T00:22:06.318Z,7.65
2023-04-05T00:24:34.142Z,7.76
2023-04-05T00:27:01.394Z,7.58
2023-04-05T00:29:28.436Z,7.63
2023-04-05T00:31:56.265Z,7.60
2023-04-05T00:34:23.011Z,7.80
2023-04-05T00:36:49.941Z,7.50
2023-04-05T00:39:16.726Z,7.77
2023-04-05T00:41:45.820Z,7.60
2023-04-05T00:44:14.251Z,7.57
2023-04-05T00:46:42.215Z,7.57
2023-04-05T00:49:09.089Z,7.55
2023-04-05T00:51:36.802Z,7.68
2023-04-05T00:54:03.690Z,7.58
2023-04-05T00:56:31.079Z,7.68
2023-04-05T00:58:57.797Z,7.51
2023-04-05T01:01:26.568Z,7.47
2023-04-05T01:03:59.895Z,7.83
2023-04-05T01:06:46.500Z,8.01
2023-04-05T01:09:23.433Z,8.05
2023-04-05T01:11:53.046Z,7.97
2023-04-05T01:14:19.666Z,7.73
2023-04-05T01:16:49.926Z,8.07
2023-04-05T01:19:17.633Z,7.76
2023-04-05T01:22:14.290Z,7.89
2023-04-05T01:24:57.698Z,8.01
2023-04-05T01:28:10.752Z,7.92
2023-04-05T01:30:43.168Z,7.84
2023-04-05T01:33:24.903Z,7.89
2023-04-05T01:36:07.013Z,7.77
2023-04-05T01:38:36.453Z,7.74
2023-04-05T01:41:03.045Z,7.84
2023-04-05T01:43:29.667Z,7.73
2023-04-05T01:45:56.279Z,7.79
2023-04-05T01:48:22.887Z,7.79
2023-04-05T01:50:49.446Z,7.72
2023-04-05T01:53:16.333Z,8.03
2023-04-05T01:55:42.964Z,7.77
2023-04-05T01:58:09.604Z,7.67
2023-04-05T02:00:36.447Z,7.64
2023-04-05T02:03:03.124Z,7.69
2023-04-05T02:05:29.745Z,7.83
2023-04-05T02:07:56.419Z,7.86
2023-04-05T02:10:23.295Z,7.91
2023-04-05T02:12:50.099Z,7.88
2023-04-05T02:15:16.965Z,8.06
2023-04-05T02:17:45.862Z,7.88
2023-04-05T02:20:14.783Z,8.27
2023-04-05T02:22:42.067Z,8.36
2023-04-05T02:25:09.271Z,8.31
2023-04-05T02:27:36.712Z,8.04
2023-04-05T02:30:04.326Z,8.26
2023-04-05T02:32:32.018Z,7.80
2023-04-05T02:34:58.837Z,8.07
2023-04-05T02:37:27.273Z,8.16
2023-04-05T02:39:54.651Z,7.91
2023-04-05T02:42:21.252Z,8.08
2023-04-05T02:44:47.852Z,7.90
2023-04-05T02:47:21.261Z,7.70
2023-04-05T02:49:50.936Z,7.98
2023-04-05T02:52:17.531Z,7.88
2023-04-05T02:54:44.824Z,8.06
2023-04-05T02:57:11.809Z,7.85
2023-04-05T02:59:39.282Z,8.18
2023-04-05T03:02:06.976Z,8.07
2023-04-05T03:04:35.075Z,8.16
2023-04-05T03:07:05.196Z,7.92
2023-04-05T03:09:34.103Z,8.08
2023-04-05T03:12:04.730Z,8.24
2023-04-05T03:14:31.964Z,7.94
2023-04-05T03:16:59.170Z,8.15
2023-04-05T03:19:27.214Z,7.75
2023-04-05T03:21:53.942Z,8.12
2023-04-05T03:24:20.712Z,7.82
2023-04-05T03:26:49.108Z,7.74
2023-04-05T03:29:18.822Z,7.97
2023-04-05T03:31:46.065Z,8.10
2023-04-05T03:34:12.776Z,7.82
2023-04-05T03:36:42.675Z,7.86
2023-04-05T03:39:10.526Z,7.95
2023-04-05T03:41:37.948Z,8.02
2023-04-05T03:44:05.012Z,8.15
2023-04-05T03:46:32.347Z,8.17
2023-04-05T03:49:00.432Z,8.08
2023-04-05T03:51:27.400Z,8.08
2023-04-05T03:53:54.079Z,7.91
2023-04-05T03:56:22.281Z,7.94
2023-04-05T03:58:49.041Z,8.02
2023-04-05T04:01:15.860Z,8.05
2023-04-05T04:03:42.749Z,7.99
2023-04-05T04:06:09.643Z,7.99
2023-04-05T04:08:36.492Z,8.06
2023-04-05T04:11:03.868Z,7.96
2023-04-05T04:13:30.633Z,8.16
2023-04-05T04:15:57.263Z,8.20
2023-04-05T04:18:23.975Z,8.02
2023-04-05T04:20:52.343Z,7.90
2023-04-05T04:23:19.343Z,7.93
2023-04-05T04:25:46.753Z,8.13
2023-04-05T04:28:13.670Z,7.90
2023-04-05T04:30:43.458Z,7.83
2023-04-05T04:33:10.209Z,8.10
2023-04-05T04:35:42.771Z,8.46
2023-04-05T04:38:09.550Z,8.17
2023-04-05T04:40:47.522Z,8.23
2023-04-05T04:43:18.958Z,8.31
2023-04-05T04:45:48.383Z,8.50
2023-04-05T04:48:16.632Z,8.17
2023-04-05T04:50:48.608Z,8.41
2023-04-05T04:53:17.655Z,8.47
2023-04-05T04:55:45.038Z,8.45
2023-04-05T04:58:13.332Z,7.93
2023-04-05T05:00:42.104Z,8.02
2023-04-05T05:03:11.394Z,8.10
2023-04-05T05:05:50.295Z,8.15
2023-04-05T05:08:19.538Z,8.52
2023-04-05T05:10:52.347Z,8.18
2023-04-05T05:13:19.097Z,8.42
2023-04-05T05:15:45.675Z,8.16
2023-04-05T05:18:12.626Z,7.92
2023-04-05T05:20:39.543Z,8.08
2023-04-05T05:23:06.429Z,8.01
2023-04-05T05:25:33.077Z,7.98
2023-04-05T05:28:00.148Z,8.18
2023-04-05T05:30:27.212Z,7.90
2023-04-05T05:32:53.983Z,8.37
2023-04-05T05:35:20.631Z,8.02
2023-04-05T05:37:47.292Z,8.21
2023-04-05T05:40:15.434Z,8.07
2023-04-05T05:42:42.268Z,8.29
2023-04-05T05:45:09.843Z,8.04
2023-04-05T05:47:37.057Z,7.82
2023-04-05T05:50:05.166Z,7.72
2023-04-05T05:52:31.811Z,7.60
2023-04-05T05:54:58.437Z,7.95
2023-04-05T05:57:25.082Z,7.62
2023-04-05T05:59:51.699Z,7.83
2023-04-05T06:02:18.527Z,7.91
2023-04-05T06:04:45.553Z,7.95
2023-04-05T06:07:12.466Z,7.75
2023-04-05T06:09:39.086Z,7.93
2023-04-05T06:12:05.837Z,7.76
2023-04-05T06:14:32.481Z,7.61
2023-04-05T06:16:59.139Z,7.63
2023-04-05T06:19:25.945Z,7.47
2023-04-05T06:21:52.763Z,7.51
2023-04-05T06:24:19.501Z,7.60
2023-04-05T06:26:46.103Z,7.98
2023-04-05T06:29:12.679Z,7.61
2023-04-05T06:31:39.393Z,7.59
2023-04-05T06:34:06.319Z,7.83
2023-04-05T06:36:34.260Z,7.62
2023-04-05T06:39:01.444Z,7.76
2023-04-05T06:41:28.306Z,7.74
2023-04-05T06:43:56.617Z,7.76
2023-04-05T06:46:24.413Z,8.11
2023-04-05T06:48:52.261Z,7.96
2023-04-05T06:51:19.362Z,8.20
2023-04-05T06:53:46.493Z,7.87
2023-04-05T06:56:13.113Z,8.03
2023-04-05T06:58:39.696Z,7.96
2023-04-05T07:01:06.853Z,8.35
2023-04-05T07:03:34.181Z,8.28
2023-04-05T07:06:01.703Z,7.98
2023-04-05T07:08:33.091Z,8.20
2023-04-05T07:10:59.949Z,8.16
2023-04-05T07:13:26.903Z,8.05
2023-04-05T07:16:03.331Z,8.07
2023-04-05T07:18:30.422Z,7.96
2023-04-05T07:21:02.179Z,8.05
2023-04-05T07:23:29.243Z,7.94
2023-04-05T07:26:10.648Z,7.72
2023-04-05T07:28:37.306Z,7.92
2023-04-05T07:31:05.770Z,8.06
2023-04-05T07:33:32.864Z,7.92
2023-04-05T07:35:59.751Z,7.94
2023-04-05T07:38:27.693Z,7.95
2023-04-05T07:40:54.451Z,8.09
2023-04-05T07:43:21.487Z,7.91
2023-04-05T07:45:48.330Z,7.97
2023-04-05T07:48:14.923Z,7.92
2023-04-05T07:50:42.692Z,7.94
2023-04-05T07:53:09.472Z,7.71
2023-04-05T07:55:38.910Z,8.21
2023-04-05T07:58:05.951Z,7.91
2023-04-05T08:00:32.660Z,7.84
2023-04-05T08:03:02.057Z,8.16
2023-04-05T08:05:29.342Z,8.06
2023-04-05T08:07:58.297Z,7.82
2023-04-05T08:10:25.742Z,8.26
2023-04-05T08:12:52.555Z,7.97
2023-04-05T08:15:19.148Z,8.39
2023-04-05T08:17:45.797Z,8.10
2023-04-05T08:20:12.931Z,8.25
2023-04-05T08:22:39.498Z,8.28
2023-04-05T08:25:06.940Z,8.26
2023-04-05T08:27:33.589Z,8.16
2023-04-05T08:30:00.203Z,8.23
2023-04-05T08:32:26.878Z,8.21
2023-04-05T08:34:53.598Z,8.28
2023-04-05T08:37:20.370Z,8.24
2023-04-05T08:39:46.987Z,8.06
2023-04-05T08:42:19.356Z,8.32
2023-04-05T08:44:50.096Z,8.67
2023-04-05T08:47:20.798Z,8.59
2023-04-05T08:49:47.700Z,8.06
2023-04-05T08:52:14.588Z,8.03
2023-04-05T08:54:41.597Z,8.64
2023-04-05T08:57:08.992Z,8.17
2023-04-05T08:59:39.175Z,8.32
2023-04-05T09:02:14.560Z,8.47
2023-04-05T09:04:45.086Z,8.60
2023-04-05T09:07:14.126Z,8.02
2023-04-05T09:09:46.674Z,8.60
2023-04-05T09:12:14.085Z,8.22
2023-04-05T09:14:41.312Z,8.62
2023-04-05T09:17:08.380Z,8.69
2023-04-05T09:19:35.092Z,8.48
2023-04-05T09:22:02.679Z,8.72
2023-04-05T09:24:42.454Z,8.76
2023-04-05T09:27:16.064Z,8.88
2023-04-05T09:29:47.646Z,8.63
2023-04-05T09:32:16.015Z,8.77
2023-04-05T09:34:44.281Z,8.55
2023-04-05T09:37:21.461Z,8.53
2023-04-05T09:39:50.940Z,8.78
2023-04-05T09:42:20.210Z,8.61
2023-04-05T09:44:52.878Z,8.76
2023-04-05T09:47:21.646Z,8.74
2023-04-05T09:49:48.396Z,8.65
2023-04-05T09:52:33.626Z,8.73
2023-04-05T09:55:02.989Z,8.59
2023-04-05T09:57:34.293Z,8.49
2023-04-05T10:00:01.259Z,8.79
2023-04-05T10:02:39.453Z,8.68
2023-04-05T10:05:07.659Z,8.19
2023-04-05T10:07:35.081Z,8.38
2023-04-05T10:10:02.302Z,8.55
2023-04-05T10:12:29.535Z,8.86
2023-04-05T10:14:57.315Z,8.53
2023-04-05T10:17:49.421Z,8.68
2023-04-05T10:20:20.749Z,8.88
2023-04-05T10:22:47.281Z,9.06
2023-04-05T10:25:39.239Z,8.82
2023-04-05T10:28:18.753Z,9.00
2023-04-05T10:30:49.677Z,8.49
2023-04-05T10:33:37.466Z,8.56
2023-04-05T10:36:16.217Z,8.84
2023-04-05T10:38:53.704Z,8.76
2023-04-05T10:41:20.327Z,8.85
2023-04-05T10:43:50.154Z,8.98
2023-04-05T10:46:21.142Z,9.55
2023-04-05T10:49:07.598Z,9.44
2023-04-05T10:51:34.900Z,9.58
2023-04-05T10:54:02.040Z,9.71
2023-04-05T10:56:29.101Z,9.57
2023-04-05T10:58:56.884Z,9.32
2023-04-05T11:01:23.945Z,9.57
2023-04-05T11:03:54.537Z,9.85
2023-04-05T11:06:21.181Z,9.88
2023-04-05T11:08:48.900Z,9.30
2023-04-05T11:11:18.649Z,9.60
2023-04-05T11:14:16.924Z,9.72
2023-04-05T11:16:47.348Z,9.39
2023-04-05T11:19:16.910Z,9.46
2023-04-05T11:21:44.577Z,9.46
2023-04-05T11:24:16.194Z,9.21
2023-04-05T11:26:43.039Z,9.50
2023-04-05T11:29:10.715Z,9.26
2023-04-05T11:31:57.939Z,9.38
2023-04-05T11:34:25.378Z,9.38
2023-04-05T11:36:52.094Z,9.57
2023-04-05T11:39:18.684Z,9.81
2023-04-05T11:42:03.544Z,9.35
2023-04-05T11:44:41.043Z,9.64
2023-04-05T11:47:08.325Z,9.28
2023-04-05T11:49:35.456Z,9.49
2023-04-05T11:52:18.125Z,9.24
2023-04-05T11:54:49.736Z,9.25
2023-04-05T11:57:20.949Z,9.65
2023-04-05T11:59:53.340Z,9.85
2023-04-05T12:02:21.411Z,9.45
2023-04-05T12:04:57.380Z,9.52
2023-04-05T12:07:27.934Z,9.69
2023-04-05T12:10:11.127Z,9.87
2023-04-05T12:12:39.863Z,9.79
2023-04-05T12:15:09.439Z,9.91
2023-04-05T12:17:54.774Z,9.95
2023-04-05T12:20:26.208Z,9.71
2023-04-05T12:22:55.021Z,9.86
2023-04-05T12:25:22.543Z,9.63
2023-04-05T12:27:49.338Z,9.69
2023-04-05T12:30:19.994Z,9.84
2023-04-05T12:32:51.572Z,9.84
2023-04-05T12:35:24.407Z,9.91
2023-04-05T12:37:52.132Z,9.77
2023-04-05T12:40:23.449Z,9.64
2023-04-05T12:42:50.696Z,9.48
2023-04-05T12:45:18.617Z,9.80
2023-04-05T12:47:51.006Z,9.43
2023-04-05T12:50:19.451Z,9.71
2023-04-05T12:52:56.649Z,9.39
2023-04-05T12:55:23.712Z,9.43
2023-04-05T12:57:54.934Z,9.25
2023-04-05T13:00:26.349Z,9.55
2023-04-05T13:02:54.396Z,9.50
2023-04-05T13:05:26.050Z,9.42
2023-04-05T13:07:53.662Z,9.52
2023-04-05T13:10:22.057Z,9.51
2023-04-05T13:12:49.191Z,9.46
2023-04-05T13:15:17.356Z,9.74
2023-04-05T13:17:50.367Z,9.56
2023-04-05T13:20:18.298Z,9.27
2023-04-05T13:22:46.241Z,9.36
2023-04-05T13:25:14.345Z,9.47
2023-04-05T13:27:41.190Z,8.99
2023-04-05T13:30:08.194Z,9.15
2023-04-05T13:32:35.154Z,9.21
2023-04-05T13:35:01.929Z,9.09
2023-04-05T13:37:28.534Z,8.87
2023-04-05T13:39:56.457Z,9.23
2023-04-05T13:42:24.377Z,9.11
2023-04-05T13:44:51.556Z,8.98
2023-04-05T13:47:18.211Z,9.08
2023-04-05T13:49:44.874Z,9.08
2023-04-05T13:52:11.457Z,9.26
2023-04-05T13:54:38.122Z,8.87
2023-04-05T13:57:05.230Z,9.18
2023-04-05T13:59:31.912Z,9.21
2023-04-05T14:01:58.623Z,9.01
2023-04-05T14:04:25.376Z,8.98
2023-04-05T14:06:51.980Z,9.56
2023-04-05T14:09:18.589Z,9.29
2023-04-05T14:11:45.387Z,9.08
2023-04-05T14:14:11.958Z,9.03
2023-04-05T14:16:38.604Z,9.30
2023-04-05T14:19:05.479Z,9.19
2023-04-05T14:21:33.186Z,9.43
2023-04-05T14:23:59.845Z,9.36
2023-04-05T14:26:27.845Z,9.35
2023-04-05T14:28:54.752Z,9.03
2023-04-05T14:31:21.446Z,9.25
2023-04-05T14:33:48.136Z,9.02
2023-04-05T14:36:14.795Z,9.06
2023-04-05T14:38:41.516Z,9.02
2023-04-05T14:41:08.580Z,8.91
2023-04-05T14:43:35.636Z,9.04
2023-04-05T14:46:02.329Z,9.34
2023-04-05T14:48:30.384Z,9.40
2023-04-05T14:50:57.129Z,9.28
2023-04-05T14:53:23.746Z,9.38
2023-04-05T14:55:50.556Z,9.42
2023-04-05T14:58:17.151Z,8.87
2023-04-05T15:00:44.628Z,9.06
2023-04-05T15:03:11.360Z,9.29
2023-04-05T15:05:38.007Z,8.99
2023-04-05T15:08:04.639Z,9.34
2023-04-05T15:10:31.431Z,9.56
2023-04-05T15:12:58.121Z,9.22
2023-04-05T15:15:24.863Z,9.23
2023-04-05T15:17:51.546Z,9.77
2023-04-05T15:20:18.228Z,9.66
2023-04-05T15:22:44.876Z,9.91
2023-04-05T15:25:11.902Z,9.91
2023-04-05T15:27:38.550Z,10.01
2023-04-05T15:30:06.042Z,9.43
2023-04-05T15:32:34.008Z,9.86
2023-04-05T15:35:01.495Z,9.83
2023-04-05T15:37:28.262Z,9.86
2023-04-05T15:39:54.947Z,9.89
2023-04-05T15:42:24.289Z,9.83
2023-04-05T15:44:51.498Z,10.19
2023-04-05T15:47:18.653Z,9.80
2023-04-05T15:49:45.472Z,10.00
2023-04-05T15:52:12.175Z,9.86
2023-04-05T15:54:38.813Z,9.94
2023-04-05T15:57:05.469Z,10.10
2023-04-05T15:59:32.199Z,10.03
2023-04-05T16:01:59.118Z,10.22
2023-04-05T16:04:27.941Z,10.29
2023-04-05T16:06:55.090Z,10.30
2023-04-05T16:09:22.374Z,10.30
2023-04-05T16:11:49.531Z,10.10
2023-04-05T16:14:16.375Z,10.40
2023-04-05T16:16:53.096Z,10.03
2023-04-05T16:19:23.670Z,10.31
2023-04-05T16:21:51.277Z,10.15
2023-04-05T16:24:18.074Z,10.18
2023-04-05T16:26:44.681Z,10.02
2023-04-05T16:29:11.300Z,10.39
2023-04-05T16:31:38.101Z,10.25
2023-04-05T16:34:04.810Z,10.21
2023-04-05T16:36:31.623Z,10.32
2023-04-05T16:38:58.218Z,10.17
2023-04-05T16:41:24.913Z,9.95
2023-04-05T16:43:51.970Z,10.05
2023-04-05T16:46:18.657Z,10.05
2023-04-05T16:48:45.637Z,10.04
2023-04-05T16:51:13.261Z,10.14
2023-04-05T16:53:39.942Z,9.98
2023-04-05T16:56:06.601Z,10.17
2023-04-05T16:58:33.332Z,9.91
2023-04-05T17:01:00.423Z,10.30
2023-04-05T17:03:27.429Z,10.37
2023-04-05T17:05:54.214Z,10.16
2023-04-05T17:08:20.825Z,9.89
2023-04-05T17:10:47.726Z,10.05
2023-04-05T17:13:15.120Z,9.98
2023-04-05T17:15:41.989Z,9.94
2023-04-05T17:18:08.908Z,10.08
2023-04-05T17:20:36.073Z,10.11
2023-04-05T17:23:02.730Z,10.29
2023-04-05T17:25:31.209Z,10.35
2023-04-05T17:27:57.864Z,10.19
2023-04-05T17:30:24.994Z,9.92
2023-04-05T17:32:52.029Z,10.35
2023-04-05T17:35:18.776Z,9.96
2023-04-05T17:37:45.527Z,10.14
2023-04-05T17:40:13.004Z,10.33
2023-04-05T17:42:39.771Z,9.99
2023-04-05T17:45:07.228Z,10.45
2023-04-05T17:47:34.087Z,10.26
2023-04-05T17:50:00.768Z,10.11
2023-04-05T17:52:27.918Z,10.19
2023-04-05T17:54:54.551Z,10.11
2023-04-05T17:57:21.586Z,10.19
2023-04-05T17:59:48.278Z,10.03
2023-04-05T18:02:15.143Z,10.05
2023-04-05T18:04:41.952Z,10.18
2023-04-05T18:07:08.814Z,10.18
2023-04-05T18:09:36.361Z,10.29
2023-04-05T18:12:03.546Z,10.01
2023-04-05T18:14:30.701Z,10.20
2023-04-05T18:16:57.362Z,10.05
2023-04-05T18:19:24.019Z,10.07
2023-04-05T18:21:50.789Z,10.08
2023-04-05T18:24:20.611Z,10.15
2023-04-05T18:26:47.561Z,9.69
2023-04-05T18:29:14.187Z,9.87
2023-04-05T18:31:40.891Z,10.09
2023-04-05T18:34:07.755Z,9.93
2023-04-05T18:36:36.094Z,9.81
2023-04-05T18:39:03.737Z,9.78
2023-04-05T18:41:30.755Z,9.91
2023-04-05T18:43:59.212Z,9.84
2023-04-05T18:46:26.490Z,9.62
2023-04-05T18:48:56.398Z,9.95
2023-04-05T18:51:24.468Z,10.03
2023-04-05T18:53:51.344Z,9.81
2023-04-05T18:56:18.439Z,10.04
2023-04-05T18:58:45.663Z,9.72
2023-04-05T19:01:16.135Z,9.76
2023-04-05T19:03:44.218Z,10.04
2023-04-05T19:06:11.155Z,9.96
2023-04-05T19:08:37.929Z,9.82
2023-04-05T19:11:06.534Z,9.65
2023-04-05T19:13:33.499Z,9.70
2023-04-05T19:16:00.453Z,9.69
2023-04-05T19:18:28.051Z,9.77
2023-04-05T19:20:56.279Z,9.91
2023-04-05T19:23:23.117Z,9.73
2023-04-05T19:25:49.811Z,9.93
2023-04-05T19:28:17.036Z,9.74
2023-04-05T19:30:43.971Z,9.69
2023-04-05T19:33:11.049Z,9.53
2023-04-05T19:35:37.929Z,9.84
2023-04-05T19:38:05.147Z,9.83
2023-04-05T19:40:32.151Z,10.01
2023-04-05T19:42:59.796Z,9.89
2023-04-05T19:45:28.111Z,9.88
2023-04-05T19:47:56.239Z,9.67
2023-04-05T19:50:37.210Z,10.05
2023-04-05T19:53:07.804Z,10.01
2023-04-05T19:55:36.331Z,9.82
2023-04-05T19:58:08.298Z,9.99
2023-04-05T20:00:44.645Z,9.98
2023-04-05T20:03:40.107Z,9.92
2023-04-05T20:06:14.119Z,9.64
2023-04-05T20:08:43.825Z,9.87
2023-04-05T20:11:16.607Z,9.92
2023-04-05T20:13:57.261Z,9.83
2023-04-05T20:16:31.050Z,9.57
2023-04-05T20:19:07.662Z,9.55
2023-04-05T20:21:35.139Z,9.35
2023-04-05T20:24:02.161Z,9.70
2023-04-05T20:26:32.808Z,9.54
2023-04-05T20:29:07.419Z,9.81
2023-04-05T20:31:38.914Z,9.90
2023-04-05T20:34:13.242Z,9.91
2023-04-05T20:36:59.780Z,9.84
2023-04-05T20:39:27.968Z,9.58
2023-04-05T20:41:56.118Z,9.57
2023-04-05T20:44:24.126Z,9.88
2023-04-05T20:46:56.138Z,9.91
2023-04-05T20:49:24.311Z,9.54
2023-04-05T20:51:54.896Z,9.99
2023-04-05T20:54:22.524Z,9.78
2023-04-05T20:56:49.298Z,9.94
2023-04-05T20:59:16.006Z,9.80
2023-04-05T21:01:43.178Z,9.86
2023-04-05T21:04:10.686Z,10.13
2023-04-05T21:06:37.865Z,10.16
2023-04-05T21:09:04.938Z,10.15
2023-04-05T21:11:31.675Z,9.80
2023-04-05T21:13:58.412Z,9.87
2023-04-05T21:16:25.161Z,9.69
2023-04-05T21:18:51.974Z,10.02
2023-04-05T21:21:18.830Z,9.77
2023-04-05T21:23:45.525Z,9.94
2023-04-05T21:26:12.283Z,9.94
2023-04-05T21:28:38.940Z,9.84
2023-04-05T21:31:05.699Z,9.94
2023-04-05T21:33:32.564Z,9.69
2023-04-05T21:35:59.245Z,9.71
2023-04-05T21:38:25.959Z,9.67
2023-04-05T21:40:52.716Z,9.91
2023-04-05T21:43:19.365Z,9.68
2023-04-05T21:45:46.679Z,9.64
2023-04-05T21:48:13.376Z,9.63
2023-04-05T21:50:40.073Z,9.62
2023-04-05T21:53:07.447Z,9.94
2023-04-05T21:55:34.150Z,9.69
2023-04-05T21:58:01.058Z,9.63
2023-04-05T22:00:28.376Z,9.57
2023-04-05T22:02:55.174Z,9.69
2023-04-05T22:05:33.787Z,9.53
2023-04-05T22:08:03.779Z,9.95
2023-04-05T22:10:30.463Z,9.60
2023-04-05T22:12:57.222Z,9.59
2023-04-05T22:15:23.898Z,9.71
2023-04-05T22:17:50.563Z,9.53
2023-04-05T22:20:17.424Z,9.51
2023-04-05T22:22:44.164Z,9.61
2023-04-05T22:25:10.861Z,9.71
2023-04-05T22:27:37.764Z,9.68
2023-04-05T22:30:05.504Z,9.83
2023-04-05T22:32:32.144Z,9.81
2023-04-05T22:34:58.828Z,9.51
2023-04-05T22:37:25.658Z,9.58
2023-04-05T22:39:52.378Z,9.69
2023-04-05T22:42:19.046Z,9.71
2023-04-05T22:44:45.868Z,9.67
2023-04-05T22:47:12.505Z,9.53
2023-04-05T22:49:39.147Z,9.61
2023-04-05T22:52:05.821Z,9.82
2023-04-05T22:54:32.427Z,9.57
2023-04-05T22:56:59.091Z,9.53
2023-04-05T22:59:26.093Z,9.41
2023-04-05T23:01:52.808Z,9.36
2023-04-05T23:04:19.472Z,9.74
2023-04-05T23:06:46.330Z,9.40
2023-04-05T23:09:14.725Z,9.68
2023-04-05T23:11:41.495Z,9.65
2023-04-05T23:14:08.405Z,9.72
2023-04-05T23:16:35.616Z,9.92
2023-04-05T23:19:02.284Z,9.73
2023-04-05T23:21:28.965Z,9.76
2023-04-05T23:23:55.660Z,9.73
2023-04-05T23:26:22.411Z,9.95
2023-04-05T23:28:49.074Z,9.84
2023-04-05T23:31:15.819Z,9.68
2023-04-05T23:33:42.554Z,9.71
2023-04-05T23:36:10.160Z,9.73
2023-04-05T23:38:36.877Z,9.72
2023-04-05T23:41:03.817Z,9.65
2023-04-05T23:43:30.847Z,9.64
2023-04-05T23:45:57.497Z,9.67
2023-04-05T23:48:24.112Z,9.51
2023-04-05T23:50:51.328Z,9.72
2023-04-05T23:53:17.994Z,9.61
2023-04-05T23:55:44.693Z,9.73
2023-04-05T23:58:11.436Z,9.71
